createdAt,value
2023-02-02T00:01:28.208Z,6.00
2023-02-02T00:04:33.549Z,5.00
2023-02-02T00:07:36.879Z,5.25
2023-02-02T00:10:40.097Z,6.00
2023-02-02T00:13:45.017Z,6.00
2023-02-02T00:16:50.250Z,5.00
2023-02-02T00:19:53.491Z,6.80
2023-02-02T00:22:57.249Z,6.50
2023-02-02T00:26:00.444Z,5.60
2023-02-02T00:29:05.801Z,7.40
2023-02-02T00:32:09.075Z,5.50
2023-02-02T00:35:12.420Z,8.00
2023-02-02T00:38:15.753Z,5.00
2023-02-02T00:41:19.046Z,4.25
2023-02-02T00:44:56.023Z,2.40
2023-02-02T00:47:59.604Z,6.40
2023-02-02T00:51:03.015Z,4.00
2023-02-02T00:54:06.464Z,5.00
2023-02-02T00:57:13.770Z,3.00
2023-02-02T01:00:20.908Z,10.80
2023-02-02T01:03:24.223Z,3.60
2023-02-02T01:06:27.606Z,6.00
2023-02-02T01:09:30.875Z,3.00
2023-02-02T01:12:34.291Z,4.00
2023-02-02T01:15:40.269Z,5.00
2023-02-02T01:18:43.807Z,6.33
2023-02-02T01:21:47.090Z,4.00
2023-02-02T01:24:50.301Z,3.50
2023-02-02T01:27:54.286Z,5.00
2023-02-02T01:30:59.615Z,6.00
2023-02-02T01:34:02.907Z,7.00
2023-02-02T01:37:06.922Z,6.40
2023-02-02T01:40:12.007Z,5.00
2023-02-02T01:43:23.796Z,5.25
2023-02-02T01:46:30.437Z,7.00
2023-02-02T01:49:35.191Z,7.40
2023-02-02T01:52:39.938Z,7.00
2023-02-02T01:55:44.687Z,8.00
2023-02-02T01:58:48.118Z,6.00
2023-02-02T02:01:55.046Z,6.40
2023-02-02T02:05:03.018Z,8.00
2023-02-02T02:08:13.239Z,7.60
2023-02-02T02:11:16.692Z,7.00
2023-02-02T02:14:37.218Z,5.75
2023-02-02T02:18:01.293Z,5.00
2023-02-02T02:21:54.732Z,6.00
2023-02-02T02:25:38.378Z,5.00
2023-02-02T02:29:14.837Z,6.00
2023-02-02T02:32:30.623Z,7.00
2023-02-02T02:35:38.952Z,5.00
2023-02-02T02:38:49.742Z,4.40
2023-02-02T02:41:59.023Z,7.00
2023-02-02T02:45:05.663Z,5.00
2023-02-02T02:48:11.710Z,5.00
2023-02-02T02:51:41.477Z,5.00
2023-02-02T02:54:50.820Z,5.00
2023-02-02T02:58:08.440Z,4.40
2023-02-02T03:01:19.508Z,5.00
2023-02-02T03:04:35.317Z,5.80
2023-02-02T03:07:44.495Z,7.00
2023-02-02T03:10:48.986Z,7.00
2023-02-02T03:13:52.395Z,6.00
2023-02-02T03:16:55.667Z,6.60
2023-02-02T03:20:00.463Z,8.40
2023-02-02T03:23:04.075Z,5.50
2023-02-02T03:26:08.158Z,7.00
2023-02-02T03:29:11.609Z,8.00
2023-02-02T03:32:14.880Z,9.40
2023-02-02T03:35:20.666Z,7.00
2023-02-02T03:38:23.997Z,7.00
2023-02-02T03:41:27.332Z,8.00
2023-02-02T03:44:30.676Z,6.00
2023-02-02T03:47:34.914Z,6.00
2023-02-02T03:50:40.033Z,7.00
2023-02-02T03:53:47.584Z,6.00
2023-02-02T03:56:50.929Z,7.00
2023-02-02T03:59:55.131Z,5.50
2023-02-02T04:02:58.452Z,6.00
2023-02-02T04:06:03.228Z,9.40
2023-02-02T04:09:06.525Z,8.20
2023-02-02T04:12:09.930Z,9.00
2023-02-02T04:15:13.280Z,9.60
2023-02-02T04:18:16.547Z,8.00
2023-02-02T04:21:21.256Z,6.40
2023-02-02T04:24:25.292Z,7.40
2023-02-02T04:27:31.610Z,5.00
2023-02-02T04:30:34.827Z,7.60
2023-02-02T04:33:38.195Z,6.00
2023-02-02T04:36:42.848Z,8.40
2023-02-02T04:39:46.203Z,6.40
2023-02-02T04:42:49.560Z,5.75
2023-02-02T04:45:56.860Z,6.00
2023-02-02T04:49:00.165Z,6.60
2023-02-02T04:52:05.116Z,7.00
2023-02-02T04:55:09.629Z,6.00
2023-02-02T04:58:13.008Z,8.00
2023-02-02T05:01:18.937Z,9.00
2023-02-02T05:04:22.256Z,7.00
2023-02-02T05:07:27.030Z,7.80
2023-02-02T05:10:30.337Z,4.80
2023-02-02T05:13:33.659Z,7.00
2023-02-02T05:16:36.992Z,8.40
2023-02-02T05:19:40.351Z,6.40
2023-02-02T05:22:44.982Z,5.40
2023-02-02T05:25:53.219Z,5.40
2023-02-02T05:28:58.120Z,6.00
2023-02-02T05:32:01.538Z,8.00
2023-02-02T05:35:05.101Z,6.00
2023-02-02T05:38:09.804Z,5.00
2023-02-02T05:41:13.170Z,4.75
2023-02-02T05:44:17.246Z,4.00
2023-02-02T05:47:20.586Z,4.00
2023-02-02T05:50:24.179Z,4.40
2023-02-02T05:53:39.597Z,5.60
2023-02-02T05:56:43.028Z,5.00
2023-02-02T05:59:47.260Z,6.00
2023-02-02T06:02:50.652Z,4.00
2023-02-02T06:05:53.933Z,5.00
2023-02-02T06:08:58.608Z,7.00
2023-02-02T06:12:01.862Z,5.25
2023-02-02T06:15:05.944Z,6.00
2023-02-02T06:18:09.210Z,4.00
2023-02-02T06:21:12.692Z,3.80
2023-02-02T06:24:17.302Z,5.00
2023-02-02T06:27:20.771Z,4.00
2023-02-02T06:30:24.292Z,4.00
2023-02-02T06:33:27.632Z,6.00
2023-02-02T06:36:31.170Z,5.00
2023-02-02T06:39:35.916Z,6.25
2023-02-02T06:42:39.130Z,7.00
2023-02-02T06:45:42.392Z,4.00
2023-02-02T06:48:46.028Z,6.00
2023-02-02T06:51:49.499Z,5.50
2023-02-02T06:54:54.218Z,5.00
2023-02-02T06:57:58.719Z,4.00
2023-02-02T07:01:06.814Z,4.40
2023-02-02T07:04:10.087Z,5.00
2023-02-02T07:07:13.359Z,2.40
2023-02-02T07:11:11.927Z,2.00
2023-02-02T07:13:42.833Z,3.00
2023-02-02T07:16:46.063Z,5.00
2023-02-02T07:19:49.348Z,4.40
2023-02-02T07:22:52.793Z,3.60
2023-02-02T07:26:05.811Z,4.40
2023-02-02T07:29:13.288Z,3.00
2023-02-02T07:32:16.489Z,4.00
2023-02-02T07:35:19.861Z,3.00
2023-02-02T07:38:23.128Z,5.00
2023-02-02T07:41:28.048Z,4.00
2023-02-02T07:44:31.514Z,4.00
2023-02-02T07:47:34.893Z,4.00
2023-02-02T07:50:38.089Z,2.75
2023-02-02T07:53:47.369Z,3.00
2023-02-02T07:56:52.247Z,4.60
2023-02-02T07:59:55.819Z,4.40
2023-02-02T08:02:59.040Z,6.00
2023-02-02T08:06:02.992Z,4.00
2023-02-02T08:09:09.076Z,4.00
2023-02-02T08:12:13.785Z,4.00
2023-02-02T08:15:17.387Z,4.00
2023-02-02T08:18:20.674Z,5.00
2023-02-02T08:21:24.392Z,4.50
2023-02-02T08:24:27.641Z,5.00
2023-02-02T08:27:32.269Z,3.60
2023-02-02T08:30:36.239Z,4.60
2023-02-02T08:33:40.292Z,4.00
2023-02-02T08:36:43.560Z,5.00
2023-02-02T08:39:47.264Z,4.00
2023-02-02T08:42:56.008Z,5.00
2023-02-02T08:46:12.728Z,5.60
2023-02-02T08:49:16.760Z,6.40
2023-02-02T08:52:20.153Z,4.60
2023-02-02T08:55:23.685Z,3.80
2023-02-02T08:58:29.477Z,7.00
2023-02-02T09:01:35.071Z,5.00
2023-02-02T09:04:38.375Z,5.00
2023-02-02T09:07:41.685Z,5.00
2023-02-02T09:10:46.301Z,6.00
2023-02-02T09:13:56.632Z,5.00
2023-02-02T09:17:00.051Z,3.00
2023-02-02T09:20:04.911Z,4.00
2023-02-02T09:23:08.676Z,2.80
2023-02-02T09:26:13.343Z,3.60
2023-02-02T09:29:19.063Z,4.60
2023-02-02T09:32:24.800Z,5.00
2023-02-02T09:35:28.995Z,3.00
2023-02-02T09:38:37.709Z,6.00
2023-02-02T09:42:14.423Z,3.60
2023-02-02T09:45:27.652Z,5.00
2023-02-02T09:48:40.383Z,4.00
2023-02-02T09:51:50.598Z,7.00
2023-02-02T09:54:59.443Z,6.60
2023-02-02T09:58:09.787Z,5.40
2023-02-02T10:01:19.226Z,7.00
2023-02-02T10:04:28.046Z,4.60
2023-02-02T10:07:38.641Z,5.00
2023-02-02T10:10:45.264Z,4.00
2023-02-02T10:13:49.897Z,4.00
2023-02-02T10:16:56.915Z,5.00
2023-02-02T10:20:07.762Z,6.00
2023-02-02T10:23:26.500Z,5.00
2023-02-02T10:26:38.354Z,4.60
2023-02-02T10:29:53.010Z,6.00
2023-02-02T10:33:06.178Z,5.60
2023-02-02T10:36:21.013Z,4.00
2023-02-02T10:39:38.171Z,7.00
2023-02-02T10:43:10.030Z,6.00
2023-02-02T10:46:18.738Z,7.00
2023-02-02T10:49:31.396Z,4.00
2023-02-02T10:52:36.981Z,4.00
2023-02-02T10:55:45.630Z,5.00
2023-02-02T10:58:56.577Z,4.60
2023-02-02T11:02:11.672Z,6.00
2023-02-02T11:05:42.944Z,4.00
2023-02-02T11:08:49.501Z,5.00
2023-02-02T11:11:58.683Z,5.00
2023-02-02T11:15:06.316Z,8.00
2023-02-02T11:18:28.318Z,7.00
2023-02-02T11:21:34.478Z,8.00
2023-02-02T11:24:46.359Z,8.00
2023-02-02T11:27:50.365Z,8.00
2023-02-02T11:30:55.291Z,9.00
2023-02-02T11:34:11.612Z,8.40
2023-02-02T11:37:21.747Z,7.60
2023-02-02T11:40:31.624Z,7.00
2023-02-02T11:43:41.463Z,8.50
2023-02-02T11:46:49.263Z,7.67
2023-02-02T11:49:54.584Z,9.50
2023-02-02T11:53:02.916Z,9.25
2023-02-02T11:56:12.047Z,9.00
2023-02-02T11:59:30.748Z,9.00
2023-02-02T12:02:35.586Z,8.00
2023-02-02T12:05:39.305Z,8.00
2023-02-02T12:08:43.977Z,10.00
2023-02-02T12:11:59.311Z,8.00
2023-02-02T12:15:14.497Z,10.00
2023-02-02T12:18:38.324Z,6.00
2023-02-02T12:21:46.641Z,5.00
2023-02-02T12:24:58.548Z,7.50
2023-02-02T12:28:11.852Z,5.80
2023-02-02T12:31:27.592Z,7.00
2023-02-02T12:34:37.991Z,6.40
2023-02-02T12:37:53.239Z,5.50
2023-02-02T12:41:22.002Z,7.00
2023-02-02T12:44:36.738Z,6.80
2023-02-02T12:47:48.645Z,7.00
2023-02-02T12:51:05.008Z,9.00
2023-02-02T12:54:34.564Z,7.00
2023-02-02T12:58:02.105Z,7.00
2023-02-02T13:01:18.858Z,7.40
2023-02-02T13:08:02.762Z,6.00
2023-02-02T13:11:29.893Z,9.00
2023-02-02T13:14:39.649Z,7.00
2023-02-02T13:17:45.067Z,6.00
2023-02-02T13:20:53.631Z,5.00
2023-02-02T13:24:00.369Z,6.00
2023-02-02T13:27:07.353Z,4.60
2023-02-02T13:30:24.132Z,7.67
2023-02-02T13:33:32.708Z,8.00
2023-02-02T13:36:38.998Z,8.00
2023-02-02T13:39:46.777Z,6.60
2023-02-02T13:42:56.329Z,9.00
2023-02-02T13:46:13.967Z,7.75
2023-02-02T13:49:22.894Z,7.25
2023-02-02T13:52:41.829Z,10.40
2023-02-02T13:56:02.500Z,8.00
2023-02-02T13:59:19.106Z,8.80
2023-02-02T14:02:33.658Z,7.60
2023-02-02T14:05:40.401Z,7.00
2023-02-02T14:08:50.011Z,10.00
2023-02-02T14:11:59.364Z,9.00
2023-02-02T14:15:03.616Z,8.50
2023-02-02T14:18:08.521Z,8.00
2023-02-02T14:21:11.751Z,8.00
2023-02-02T14:24:40.792Z,8.00
2023-02-02T14:28:02.474Z,7.00
2023-02-02T14:31:53.400Z,9.00
2023-02-02T14:34:59.302Z,7.00
2023-02-02T14:38:10.095Z,9.00
2023-02-02T14:41:39.504Z,7.50
2023-02-02T14:45:09.218Z,10.40
2023-02-02T14:48:17.526Z,8.25
2023-02-02T14:51:24.955Z,7.50
2023-02-02T14:54:39.261Z,6.00
2023-02-02T14:57:42.908Z,8.00
2023-02-02T15:00:57.826Z,9.00
2023-02-02T15:04:26.145Z,6.00
2023-02-02T15:07:55.107Z,9.00
2023-02-02T15:11:24.449Z,7.00
2023-02-02T15:14:34.291Z,11.00
2023-02-02T15:17:53.330Z,7.20
2023-02-02T15:21:03.037Z,7.00
2023-02-02T15:24:16.963Z,10.40
2023-02-02T15:27:25.128Z,9.00
2023-02-02T15:30:33.553Z,6.40
2023-02-02T15:33:40.183Z,7.60
2023-02-02T15:36:45.816Z,8.00
2023-02-02T15:39:53.379Z,9.00
2023-02-02T15:43:01.609Z,7.20
2023-02-02T15:46:10.712Z,6.75
2023-02-02T15:49:34.722Z,8.40
2023-02-02T15:52:47.165Z,6.00
2023-02-02T15:55:51.824Z,5.00
2023-02-02T15:58:57.174Z,5.60
2023-02-02T16:02:20.406Z,6.75
2023-02-02T16:05:42.869Z,8.00
2023-02-02T16:08:46.582Z,5.60
2023-02-02T16:11:52.228Z,9.00
2023-02-02T16:14:56.707Z,9.00
2023-02-02T16:18:01.314Z,8.00
2023-02-02T16:21:14.449Z,10.40
2023-02-02T16:24:23.029Z,11.00
2023-02-02T16:27:30.140Z,6.60
2023-02-02T16:30:38.260Z,9.40
2023-02-02T16:33:44.411Z,6.20
2023-02-02T16:37:05.821Z,10.00
2023-02-02T16:40:26.303Z,9.00
2023-02-02T16:43:31.550Z,9.80
2023-02-02T16:46:45.601Z,11.40
2023-02-02T16:49:49.179Z,10.00
2023-02-02T16:52:56.281Z,10.00
2023-02-02T16:55:59.572Z,10.00
2023-02-02T16:59:09.539Z,11.00
2023-02-02T17:02:23.846Z,8.00
2023-02-02T17:05:29.608Z,9.00
2023-02-02T17:08:35.645Z,7.00
2023-02-02T17:11:38.854Z,8.60
2023-02-02T17:14:53.246Z,8.00
2023-02-02T17:17:56.723Z,8.00
2023-02-02T17:21:04.369Z,6.00
2023-02-02T17:24:08.127Z,6.60
2023-02-02T17:27:17.534Z,8.00
2023-02-02T17:30:22.227Z,7.75
2023-02-02T17:33:25.588Z,8.00
2023-02-02T17:36:29.130Z,7.00
2023-02-02T17:39:32.302Z,8.00
2023-02-02T17:42:36.105Z,8.00
2023-02-02T17:45:41.318Z,10.00
2023-02-02T17:48:44.581Z,6.60
2023-02-02T17:51:48.099Z,7.20
2023-02-02T17:54:51.288Z,9.00
2023-02-02T17:57:55.363Z,8.00
2023-02-02T18:01:00.057Z,7.00
2023-02-02T18:04:03.227Z,8.50
2023-02-02T18:07:07.687Z,9.00
2023-02-02T18:10:13.447Z,12.00
2023-02-02T18:13:19.405Z,12.00
2023-02-02T18:16:24.080Z,10.00
2023-02-02T18:19:27.317Z,11.00
2023-02-02T18:22:30.764Z,11.60
2023-02-02T18:25:34.076Z,12.00
2023-02-02T18:28:38.056Z,10.80
2023-02-02T18:31:42.691Z,11.00
2023-02-02T18:34:51.131Z,13.00
2023-02-02T18:37:54.379Z,13.00
2023-02-02T18:40:57.688Z,11.00
2023-02-02T18:44:01.077Z,8.40
2023-02-02T18:47:06.199Z,10.00
2023-02-02T18:50:10.351Z,11.00
2023-02-02T18:53:15.721Z,12.00
2023-02-02T18:56:18.924Z,10.00
2023-02-02T18:59:22.091Z,12.00
2023-02-02T19:02:27.251Z,11.00
2023-02-02T19:05:47.914Z,11.00
2023-02-02T19:08:51.595Z,10.00
2023-02-02T19:11:55.676Z,9.00
2023-02-02T19:14:58.908Z,11.40
2023-02-02T19:18:04.441Z,9.00
2023-02-02T19:21:12.610Z,10.00
2023-02-02T19:24:16.223Z,12.00
2023-02-02T19:27:21.834Z,10.20
2023-02-02T19:30:25.457Z,9.00
2023-02-02T19:33:38.848Z,8.00
2023-02-02T19:36:46.814Z,9.00
2023-02-02T19:39:50.190Z,11.00
2023-02-02T19:42:57.358Z,10.00
2023-02-02T19:46:01.349Z,12.00
2023-02-02T19:49:13.526Z,11.60
2023-02-02T19:52:20.018Z,12.00
2023-02-02T19:55:26.222Z,15.00
2023-02-02T19:58:35.439Z,11.00
2023-02-02T20:01:40.085Z,13.00
2023-02-02T20:04:44.621Z,12.00
2023-02-02T20:07:48.667Z,15.40
2023-02-02T20:10:54.032Z,10.20
2023-02-02T20:13:57.236Z,11.00
2023-02-02T20:17:03.960Z,12.20
2023-02-02T20:20:25.341Z,13.00
2023-02-02T20:23:41.601Z,9.00
2023-02-02T20:26:46.240Z,13.40
2023-02-02T20:29:51.201Z,13.00
2023-02-02T20:32:58.088Z,11.40
2023-02-02T20:36:03.229Z,15.60
2023-02-02T20:39:31.064Z,14.00
2023-02-02T20:42:34.285Z,12.80
2023-02-02T20:45:37.610Z,12.00
2023-02-02T20:48:40.832Z,13.00
2023-02-02T20:51:45.454Z,12.00
2023-02-02T20:54:49.162Z,11.25
2023-02-02T20:57:52.936Z,13.60
2023-02-02T21:00:56.156Z,12.75
2023-02-02T21:03:59.386Z,13.80
2023-02-02T21:07:04.068Z,11.00
2023-02-02T21:10:08.441Z,9.25
2023-02-02T21:13:11.591Z,12.20
2023-02-02T21:16:14.776Z,9.33
2023-02-02T21:19:17.987Z,12.40
2023-02-02T21:22:22.678Z,11.00
2023-02-02T21:25:25.800Z,13.00
2023-02-02T21:28:34.919Z,10.80
2023-02-02T21:31:40.038Z,12.20
2023-02-02T21:34:43.927Z,9.20
2023-02-02T21:37:51.912Z,11.00
2023-02-02T21:40:57.619Z,13.00
2023-02-02T21:44:00.980Z,12.00
2023-02-02T21:47:04.353Z,10.50
2023-02-02T21:50:16.860Z,13.20
2023-02-02T21:53:23.452Z,10.20
2023-02-02T21:56:30.188Z,12.00
2023-02-02T21:59:36.724Z,9.00
2023-02-02T22:02:44.663Z,12.00
2023-02-02T22:05:48.235Z,9.00
2023-02-02T22:08:55.864Z,9.00
2023-02-02T22:12:01.709Z,11.00
2023-02-02T22:15:19.550Z,10.75
2023-02-02T22:18:24.412Z,10.60
2023-02-02T22:21:27.931Z,11.50
2023-02-02T22:24:32.653Z,8.00
2023-02-02T22:27:42.821Z,12.00
2023-02-02T22:30:46.466Z,11.00
2023-02-02T22:33:49.705Z,13.60
2023-02-02T22:36:53.053Z,13.00
2023-02-02T22:40:00.363Z,12.00
2023-02-02T22:43:05.670Z,12.00
2023-02-02T22:46:09.012Z,13.00
2023-02-02T22:49:12.257Z,11.00
2023-02-02T22:52:15.589Z,12.60
2023-02-02T22:55:20.931Z,10.00
2023-02-02T22:58:26.274Z,12.00
2023-02-02T23:01:29.675Z,11.60
2023-02-02T23:04:32.895Z,12.60
2023-02-02T23:07:36.150Z,12.00
2023-02-02T23:10:40.950Z,12.20
2023-02-02T23:13:44.166Z,12.40
2023-02-02T23:16:47.997Z,11.00
2023-02-02T23:19:51.271Z,10.80
2023-02-02T23:22:54.585Z,9.00
2023-02-02T23:25:59.233Z,12.00
2023-02-02T23:29:02.563Z,14.20
2023-02-02T23:32:07.185Z,8.00
2023-02-02T23:35:11.274Z,13.25
2023-02-02T23:38:14.682Z,10.00
2023-02-02T23:41:20.434Z,10.00
2023-02-02T23:44:23.621Z,13.50
2023-02-02T23:47:27.043Z,9.80
2023-02-02T23:50:30.280Z,11.00
2023-02-02T23:53:33.480Z,9.00
2023-02-02T23:56:38.463Z,12.20
2023-02-02T23:59:41.853Z,10.75
